Big Bear Station Historical Data
Daily Summary for July 28, 2017 Units:  English    Metric   Both
« Previous Day
Next Day »
Daily Weekly Monthly Yearly Custom
  High: Low: Average:
Temperature: 86.7 °F 52.0 °F 68.2 °F
Dew Point: 51.2 °F 36.2 °F 43.2 °F
Humidity: 75 % 20 % 44 %
Wind Speed: 6.8 mph 0.0 mph 2.2 mph
Wind Gust: -999.0 mph - -
Wind:- - SW
Pressure: 30.28 in 30.24 in -
Precipitation: 0.00 in    
Historical Graphs
 
 
Tabular Data for July 28, 2017
Time Temperature Dew Point Pressure Wind Wind Speed Wind Gust Humidity Rainfall Rate (Hourly)
00:14 58.8 °F 44.5 °F 30.27 in Calm   -999.0 mph 59 % 0 in
00:29 58.3 °F 44.5 °F 30.26 in South 1.7 mph -999.0 mph 60 % 0 in
00:44 57.7 °F 45.2 °F 30.26 in Calm   -999.0 mph 63 % 0 in
01:15 57.0 °F 44.9 °F 30.26 in Calm   -999.0 mph 64 % 0 in
01:30 56.7 °F 43.8 °F 30.26 in Calm   -999.0 mph 62 % 0 in
01:45 56.1 °F 43.7 °F 30.26 in Calm   -999.0 mph 63 % 0 in
02:00 55.8 °F 43.4 °F 30.26 in Calm   -999.0 mph 63 % 0 in
02:16 55.6 °F 44.0 °F 30.26 in South 1.7 mph -999.0 mph 65 % 0 in
02:31 55.2 °F 43.2 °F 30.25 in South 1.1 mph -999.0 mph 64 % 0 in
02:46 54.9 °F 43.0 °F 30.25 in South 1.7 mph -999.0 mph 64 % 0 in
03:02 54.7 °F 42.8 °F 30.25 in South 1.7 mph -999.0 mph 64 % 0 in
03:17 54.5 °F 41.7 °F 30.25 in Calm   -999.0 mph 62 % 0 in
03:32 54.1 °F 42.2 °F 30.25 in SSW 1.7 mph -999.0 mph 64 % 0 in
03:47 54.0 °F 42.1 °F 30.25 in South 1.7 mph -999.0 mph 64 % 0 in
04:02 53.8 °F 40.7 °F 30.25 in SSW 1.7 mph -999.0 mph 61 % 0 in
04:18 53.6 °F 41.3 °F 30.25 in SSE 1.7 mph -999.0 mph 63 % 0 in
04:33 53.2 °F 43.3 °F 30.25 in South 1.7 mph -999.0 mph 69 % 0 in
04:48 53.1 °F 42.8 °F 30.25 in Calm   -999.0 mph 68 % 0 in
05:03 53.1 °F 42.0 °F 30.25 in SSE 1.1 mph -999.0 mph 66 % 0 in
05:18 52.7 °F 41.7 °F 30.25 in ESE 1.7 mph -999.0 mph 66 % 0 in
05:34 52.7 °F 41.7 °F 30.25 in SSE 1.7 mph -999.0 mph 66 % 0 in
05:49 52.7 °F 42.1 °F 30.26 in South 1.7 mph -999.0 mph 67 % 0 in
06:04 52.3 °F 41.3 °F 30.26 in Calm   -999.0 mph 66 % 0 in
06:19 52.0 °F 40.6 °F 30.26 in Calm   -999.0 mph 65 % 0 in
06:34 52.2 °F 41.6 °F 30.26 in Calm   -999.0 mph 67 % 0 in
06:50 52.5 °F 42.2 °F 30.26 in Calm   -999.0 mph 68 % 0 in
07:05 52.5 °F 44.5 °F 30.27 in Calm   -999.0 mph 74 % 0 in
07:21 53.1 °F 45.0 °F 30.26 in Calm   -999.0 mph 74 % 0 in
07:51 54.7 °F 46.9 °F 30.27 in Calm   -999.0 mph 75 % 0 in
08:22 57.9 °F 46.6 °F 30.27 in Calm   -999.0 mph 66 % 0 in
08:37 60.4 °F 47.3 °F 30.27 in Calm   -999.0 mph 62 % 0 in
08:52 63.1 °F 48.5 °F 30.27 in NNW 1.1 mph -999.0 mph 59 % 0 in
09:07 67.5 °F 42.3 °F 30.27 in SSW 1.7 mph -999.0 mph 40 % 0 in
09:23 70.2 °F 42.7 °F 30.27 in North 2.2 mph -999.0 mph 37 % 0 in
09:38 73.0 °F 44.5 °F 30.27 in WNW 3.7 mph -999.0 mph 36 % 0 in
09:54 74.3 °F 43.3 °F 30.27 in SSW 3.7 mph -999.0 mph 33 % 0 in
10:25 75.2 °F 44.1 °F 30.27 in WNW 3.2 mph -999.0 mph 33 % 0 in
10:40 75.7 °F 43.8 °F 30.27 in West 4.7 mph -999.0 mph 32 % 0 in
10:55 76.6 °F 42.9 °F 30.28 in WNW 4.7 mph -999.0 mph 30 % 0 in
11:10 77.7 °F 42.0 °F 30.27 in West 1.7 mph -999.0 mph 28 % 0 in
11:26 78.4 °F 42.6 °F 30.28 in NNW 4.2 mph -999.0 mph 28 % 0 in
11:41 80.6 °F 41.5 °F 30.28 in West 4.7 mph -999.0 mph 25 % 0 in
11:56 81.3 °F 41.1 °F 30.28 in NW 5.3 mph -999.0 mph 24 % 0 in
12:11 82.8 °F 41.2 °F 30.27 in NNW 5.8 mph -999.0 mph 23 % 0 in
12:26 83.3 °F 40.5 °F 30.27 in East 3.7 mph -999.0 mph 22 % 0 in
12:42 83.8 °F 43.2 °F 30.27 in NW 4.7 mph -999.0 mph 24 % 0 in
12:57 83.5 °F 42.9 °F 30.27 in NNE 6.8 mph -999.0 mph 24 % 0 in
13:13 84.4 °F 43.7 °F 30.27 in NW 5.3 mph -999.0 mph 24 % 0 in
13:28 84.4 °F 42.6 °F 30.28 in WNW 4.2 mph -999.0 mph 23 % 0 in
13:43 84.9 °F 41.8 °F 30.27 in NW 4.7 mph -999.0 mph 22 % 0 in
13:58 84.6 °F 42.7 °F 30.27 in WNW 5.3 mph -999.0 mph 23 % 0 in
14:14 84.4 °F 40.2 °F 30.27 in NW 5.8 mph -999.0 mph 21 % 0 in
14:29 84.7 °F 41.7 °F 30.27 in NNW 3.2 mph -999.0 mph 22 % 0 in
14:44 85.6 °F 39.9 °F 30.27 in SSW 2.7 mph -999.0 mph 20 % 0 in
14:59 86.5 °F 40.7 °F 30.27 in NNW 6.8 mph -999.0 mph 20 % 0 in
15:15 86.7 °F 44.5 °F 30.26 in NW 4.2 mph -999.0 mph 23 % 0 in
15:45 83.7 °F 47.1 °F 30.26 in South 4.2 mph -999.0 mph 28 % 0 in
16:00 81.7 °F 41.4 °F 30.26 in West 3.2 mph -999.0 mph 24 % 0 in
16:16 82.0 °F 45.7 °F 30.26 in WNW 3.7 mph -999.0 mph 28 % 0 in
16:31 82.2 °F 44.9 °F 30.25 in NW 5.3 mph -999.0 mph 27 % 0 in
16:46 82.2 °F 46.8 °F 30.25 in NNE 2.7 mph -999.0 mph 29 % 0 in
17:01 82.4 °F 45.1 °F 30.25 in NW 5.8 mph -999.0 mph 27 % 0 in
17:17 82.6 °F 45.2 °F 30.25 in NNW 3.7 mph -999.0 mph 27 % 0 in
17:32 82.4 °F 43.1 °F 30.24 in NW 5.3 mph -999.0 mph 25 % 0 in
17:47 82.6 °F 43.2 °F 30.24 in ENE 3.7 mph -999.0 mph 25 % 0 in
18:03 82.8 °F 43.4 °F 30.24 in NW 3.7 mph -999.0 mph 25 % 0 in
18:18 82.0 °F 45.7 °F 30.24 in NW 2.2 mph -999.0 mph 28 % 0 in
18:33 81.5 °F 51.2 °F 30.25 in WNW 3.7 mph -999.0 mph 35 % 0 in
18:48 77.7 °F 50.8 °F 30.25 in NE 1.1 mph -999.0 mph 39 % 0 in
19:03 77.5 °F 49.9 °F 30.25 in WSW 2.2 mph -999.0 mph 38 % 0 in
19:19 74.1 °F 48.9 °F 30.25 in South 2.2 mph -999.0 mph 41 % 0 in
19:34 71.1 °F 47.5 °F 30.25 in NW 3.7 mph -999.0 mph 43 % 0 in
19:49 69.4 °F 45.9 °F 30.25 in WNW 1.1 mph -999.0 mph 43 % 0 in
20:19 67.8 °F 45.1 °F 30.26 in Calm   -999.0 mph 44 % 0 in
20:35 67.1 °F 45.6 °F 30.26 in Calm   -999.0 mph 46 % 0 in
20:50 66.4 °F 44.4 °F 30.26 in Calm   -999.0 mph 45 % 0 in
21:05 65.5 °F 42.4 °F 30.27 in ESE 1.7 mph -999.0 mph 43 % 0 in
21:20 65.1 °F 41.4 °F 30.27 in Calm   -999.0 mph 42 % 0 in
21:36 64.8 °F 41.2 °F 30.27 in Calm   -999.0 mph 42 % 0 in
21:51 64.4 °F 40.8 °F 30.28 in Calm   -999.0 mph 42 % 0 in
22:06 64.2 °F 41.8 °F 30.28 in Calm   -999.0 mph 44 % 0 in
22:21 63.9 °F 41.6 °F 30.28 in South 1.7 mph -999.0 mph 44 % 0 in
22:36 63.3 °F 41.6 °F 30.28 in Calm   -999.0 mph 45 % 0 in
22:52 62.8 °F 39.4 °F 30.28 in South 1.7 mph -999.0 mph 42 % 0 in
23:07 61.7 °F 37.1 °F 30.28 in South 1.7 mph -999.0 mph 40 % 0 in
23:22 60.6 °F 38.0 °F 30.28 in Calm   -999.0 mph 43 % 0 in
23:37 59.4 °F 37.5 °F 30.28 in Calm   -999.0 mph 44 % 0 in
23:52 58.6 °F 36.2 °F 30.28 in Calm   -999.0 mph 43 % 0 in
Big Bear CA Weather
Compliments of Weather Underground - 1.5 mb